Jacob, Florida
Current Conditions -  °F | °C
As of 1:53 PM on Wednesday 17 Dec 2014 (Local Time) from KMAI Reporting Station
Clear Clear  
Wind Chill: 62°   Ceiling: Unl
Heat Index: 62°   Visibility: 10mi
Dew Point: 42°   Wind: 5mph
Humidity: 48%   Direction: NA
Pressure: 30.14"   Gusts: NA
Location:  30.8161°N, 85.3961°W
Report Text: KMAI 171953Z AUTO VRB04KT 10SM CLR 17/06 A3014 RMK AO2 RAE16 SLP207 P0000 T01670056 $
Loading
Personal Weather Stations






























Interactive Weather Map New forecast layout! Learn more

10-Day Weather Forecast

Advertisements
Track Severe Weather on mobile